createdAt,value
2022-08-21T00:02:17.801Z,19.61
2022-08-21T00:04:48.276Z,19.58
2022-08-21T00:07:24.059Z,19.60
2022-08-21T00:09:53.433Z,19.62
2022-08-21T00:12:20.746Z,19.59
2022-08-21T00:14:48.443Z,19.57
2022-08-21T00:17:15.616Z,19.60
2022-08-21T00:19:42.689Z,19.62
2022-08-21T00:22:09.775Z,19.59
2022-08-21T00:24:37.253Z,19.62
2022-08-21T00:27:04.237Z,19.61
2022-08-21T00:29:32.354Z,19.65
2022-08-21T00:32:00.079Z,19.70
2022-08-21T00:34:27.535Z,19.71
2022-08-21T00:36:56.212Z,19.72
2022-08-21T00:39:24.283Z,19.79
2022-08-21T00:41:51.445Z,19.75
2022-08-21T00:44:18.634Z,19.73
2022-08-21T00:46:47.189Z,19.69
2022-08-21T00:49:14.442Z,19.72
2022-08-21T00:51:41.393Z,19.78
2022-08-21T00:54:15.485Z,19.87
2022-08-21T00:56:45.702Z,19.76
2022-08-21T00:59:13.908Z,19.79
2022-08-21T01:01:41.214Z,19.77
2022-08-21T01:04:08.401Z,19.76
2022-08-21T01:06:36.332Z,19.76
2022-08-21T01:09:03.708Z,19.75
2022-08-21T01:11:31.208Z,19.75
2022-08-21T01:13:59.053Z,19.72
2022-08-21T01:16:26.246Z,19.63
2022-08-21T01:18:53.132Z,19.61
2022-08-21T01:21:27.866Z,19.62
2022-08-21T01:23:56.546Z,19.62
2022-08-21T01:26:29.076Z,19.62
2022-08-21T01:29:03.734Z,19.60
2022-08-21T01:31:34.010Z,19.56
2022-08-21T01:34:01.224Z,19.55
2022-08-21T01:36:28.501Z,19.44
2022-08-21T01:38:56.171Z,19.40
2022-08-21T01:41:23.122Z,19.37
2022-08-21T01:43:50.650Z,19.35
2022-08-21T01:46:18.423Z,19.38
2022-08-21T01:48:45.533Z,19.34
2022-08-21T01:51:13.223Z,19.34
2022-08-21T01:53:40.434Z,19.33
2022-08-21T01:56:12.445Z,19.28
2022-08-21T01:58:43.857Z,19.26
2022-08-21T02:01:11.102Z,19.21
2022-08-21T02:03:38.860Z,19.23
2022-08-21T02:06:07.996Z,19.19
2022-08-21T02:08:35.356Z,19.17
2022-08-21T02:11:02.424Z,19.12
2022-08-21T02:13:30.091Z,19.08
2022-08-21T02:15:57.037Z,19.12
2022-08-21T02:18:25.296Z,19.13
2022-08-21T02:20:55.287Z,19.09
2022-08-21T02:23:26.876Z,19.06
2022-08-21T02:25:56.887Z,19.03
2022-08-21T02:28:26.186Z,19.06
2022-08-21T02:30:56.079Z,19.00
2022-08-21T02:33:26.082Z,18.96
2022-08-21T02:35:54.620Z,18.97
2022-08-21T02:38:27.339Z,18.98
2022-08-21T02:40:55.466Z,18.94
2022-08-21T02:43:28.812Z,18.93
2022-08-21T02:45:57.657Z,18.93
2022-08-21T02:48:27.099Z,18.92
2022-08-21T02:50:57.306Z,18.93
2022-08-21T02:53:26.880Z,18.94
2022-08-21T02:55:54.816Z,18.98
2022-08-21T02:58:23.310Z,18.95
2022-08-21T03:00:56.235Z,18.97
2022-08-21T03:03:27.839Z,18.95
2022-08-21T03:05:55.035Z,18.97
2022-08-21T03:08:26.433Z,18.97
2022-08-21T03:10:55.592Z,19.01
2022-08-21T03:13:23.141Z,18.99
2022-08-21T03:15:50.693Z,18.97
2022-08-21T03:18:18.067Z,18.93
2022-08-21T03:20:46.314Z,18.96
2022-08-21T03:23:14.384Z,18.93
2022-08-21T03:25:46.863Z,18.93
2022-08-21T03:28:15.667Z,18.91
2022-08-21T03:30:43.197Z,18.94
2022-08-21T03:33:15.309Z,18.94
2022-08-21T03:35:46.828Z,18.98
2022-08-21T03:38:14.339Z,18.97
2022-08-21T03:40:42.161Z,18.97
2022-08-21T03:43:10.835Z,18.96
2022-08-21T03:45:39.632Z,18.97
2022-08-21T03:48:08.019Z,18.97
2022-08-21T03:50:41.195Z,19.00
2022-08-21T03:53:16.607Z,19.01
2022-08-21T03:55:48.716Z,18.95
2022-08-21T03:58:25.555Z,18.94
2022-08-21T04:00:55.154Z,19.00
2022-08-21T04:03:23.227Z,19.00
2022-08-21T04:05:50.144Z,18.99
2022-08-21T04:08:19.718Z,19.00
2022-08-21T04:10:51.034Z,19.01
2022-08-21T04:13:19.075Z,19.04
2022-08-21T04:15:46.064Z,19.02
2022-08-21T04:18:14.462Z,19.10
2022-08-21T04:20:45.318Z,19.01
2022-08-21T04:23:23.382Z,19.03
2022-08-21T04:25:56.139Z,19.06
2022-08-21T04:28:27.884Z,19.12
2022-08-21T04:30:58.018Z,19.11
2022-08-21T04:33:26.082Z,19.10
2022-08-21T04:35:54.177Z,19.15
2022-08-21T04:38:36.525Z,19.20
2022-08-21T04:41:28.883Z,19.22
2022-08-21T04:44:00.491Z,19.20
2022-08-21T04:46:28.153Z,19.24
2022-08-21T04:48:55.554Z,19.20
2022-08-21T04:51:29.548Z,19.24
2022-08-21T04:54:01.092Z,19.26
2022-08-21T04:56:32.351Z,19.24
2022-08-21T04:59:16.511Z,19.25
2022-08-21T05:01:56.727Z,19.30
2022-08-21T05:04:29.153Z,19.35
2022-08-21T05:06:57.584Z,19.34
2022-08-21T05:09:25.618Z,19.21
2022-08-21T05:11:53.824Z,19.17
2022-08-21T05:14:20.854Z,19.22
2022-08-21T05:16:51.013Z,19.23
2022-08-21T05:19:18.311Z,19.39
2022-08-21T05:21:46.378Z,19.34
2022-08-21T05:24:14.186Z,19.43
2022-08-21T05:27:39.774Z,19.60
2022-08-21T05:30:10.807Z,19.70
2022-08-21T05:32:37.848Z,19.82
2022-08-21T05:35:05.878Z,19.97
2022-08-21T05:37:33.383Z,20.08
2022-08-21T05:40:04.576Z,20.20
2022-08-21T05:42:54.980Z,20.29
2022-08-21T05:45:42.159Z,20.45
2022-08-21T05:48:13.247Z,20.68
2022-08-21T05:50:40.665Z,20.77
2022-08-21T05:53:10.760Z,20.73
2022-08-21T05:55:44.438Z,20.84
2022-08-21T05:58:19.375Z,20.92
2022-08-21T06:00:48.721Z,21.10
2022-08-21T06:03:18.689Z,21.43
2022-08-21T06:05:49.227Z,21.57
2022-08-21T06:08:17.659Z,22.36
2022-08-21T06:10:45.192Z,23.44
2022-08-21T06:13:12.956Z,22.95
2022-08-21T06:15:39.777Z,23.01
2022-08-21T06:18:06.661Z,22.81
2022-08-21T06:20:33.921Z,22.56
2022-08-21T06:23:01.221Z,23.04
2022-08-21T06:25:28.593Z,23.12
2022-08-21T06:28:01.715Z,23.19
2022-08-21T06:30:28.775Z,23.07
2022-08-21T06:32:56.176Z,22.93
2022-08-21T06:35:23.190Z,22.52
2022-08-21T06:37:50.090Z,22.30
2022-08-21T06:40:17.296Z,22.31
2022-08-21T06:42:54.753Z,22.42
2022-08-21T06:45:28.231Z,22.26
2022-08-21T06:47:57.512Z,21.96
2022-08-21T06:50:25.565Z,22.08
2022-08-21T06:53:13.505Z,22.59
2022-08-21T06:55:43.308Z,23.38
2022-08-21T06:58:10.724Z,24.04
2022-08-21T07:00:39.991Z,24.16
2022-08-21T07:03:16.326Z,24.52
2022-08-21T07:05:49.978Z,24.37
2022-08-21T07:08:17.972Z,24.26
2022-08-21T07:10:45.217Z,24.24
2022-08-21T07:13:13.848Z,24.31
2022-08-21T07:15:42.375Z,24.09
2022-08-21T07:18:09.443Z,24.01
2022-08-21T07:20:36.805Z,23.68
2022-08-21T07:23:07.216Z,23.21
2022-08-21T07:25:34.190Z,22.91
2022-08-21T07:28:01.887Z,23.57
2022-08-21T07:30:29.541Z,23.75
2022-08-21T07:32:56.940Z,23.89
2022-08-21T07:35:26.006Z,24.32
2022-08-21T07:37:53.161Z,23.87
2022-08-21T07:40:20.800Z,23.78
2022-08-21T07:42:52.757Z,23.57
2022-08-21T07:45:22.133Z,23.46
2022-08-21T07:47:52.011Z,23.37
2022-08-21T07:50:23.660Z,23.58
2022-08-21T07:52:51.902Z,23.25
2022-08-21T07:55:20.897Z,23.24
2022-08-21T07:57:48.184Z,23.22
2022-08-21T08:00:17.829Z,23.32
2022-08-21T08:02:47.706Z,23.26
2022-08-21T08:05:19.441Z,23.27
2022-08-21T08:07:48.693Z,23.07
2022-08-21T08:10:17.052Z,23.13
2022-08-21T08:12:46.295Z,23.16
2022-08-21T08:15:18.459Z,22.94
2022-08-21T08:17:46.342Z,22.70
2022-08-21T08:20:16.484Z,22.69
2022-08-21T08:22:44.094Z,22.50
2022-08-21T08:25:19.346Z,22.37
2022-08-21T08:27:48.681Z,22.26
2022-08-21T08:30:23.017Z,22.30
2022-08-21T08:32:54.120Z,22.25
2022-08-21T08:35:25.563Z,22.01
2022-08-21T08:38:04.281Z,21.95
2022-08-21T08:40:57.007Z,22.15
2022-08-21T08:43:24.002Z,21.96
2022-08-21T08:45:52.068Z,21.93
2022-08-21T08:48:32.369Z,21.66
2022-08-21T08:51:01.297Z,21.76
2022-08-21T08:53:34.146Z,21.73
2022-08-21T08:56:03.360Z,21.74
2022-08-21T08:58:37.837Z,21.75
2022-08-21T09:01:06.848Z,21.85
2022-08-21T09:03:35.168Z,21.95
2022-08-21T09:06:05.432Z,22.12
2022-08-21T09:08:37.526Z,22.23
2022-08-21T09:11:16.397Z,22.26
2022-08-21T09:14:03.150Z,22.47
2022-08-21T09:17:00.955Z,22.22
2022-08-21T09:19:46.182Z,21.96
2022-08-21T09:22:13.147Z,22.05
2022-08-21T09:24:51.991Z,21.96
2022-08-21T09:27:20.024Z,21.88
2022-08-21T09:29:48.810Z,21.90
2022-08-21T09:32:24.064Z,22.00
2022-08-21T09:35:12.822Z,22.12
2022-08-21T09:37:46.206Z,22.28
2022-08-21T09:40:31.702Z,22.22
2022-08-21T09:43:01.282Z,22.27
2022-08-21T09:45:29.281Z,22.33
2022-08-21T09:48:14.475Z,22.38
2022-08-21T09:50:42.674Z,22.40
2022-08-21T09:53:17.332Z,22.36
2022-08-21T09:56:29.669Z,22.14
2022-08-21T09:58:58.228Z,22.11
2022-08-21T10:01:26.790Z,22.18
2022-08-21T10:04:04.109Z,22.33
2022-08-21T10:06:32.116Z,22.50
2022-08-21T10:09:15.234Z,22.55
2022-08-21T10:11:58.674Z,22.60
2022-08-21T10:14:45.141Z,22.69
2022-08-21T10:17:27.451Z,22.95
2022-08-21T10:20:03.151Z,22.98
2022-08-21T10:22:40.855Z,23.12
2022-08-21T10:25:26.492Z,23.29
2022-08-21T10:27:58.181Z,23.51
2022-08-21T10:30:32.188Z,23.63
2022-08-21T10:33:25.862Z,23.63
2022-08-21T10:35:56.941Z,23.54
2022-08-21T10:38:52.643Z,23.59
2022-08-21T10:41:28.794Z,23.35
2022-08-21T10:44:16.170Z,23.40
2022-08-21T10:46:51.860Z,23.48
2022-08-21T10:49:22.338Z,23.62
2022-08-21T10:52:11.112Z,23.53
2022-08-21T10:54:50.742Z,23.57
2022-08-21T10:57:39.441Z,23.14
2022-08-21T11:00:16.823Z,23.06
2022-08-21T11:02:54.845Z,23.15
2022-08-21T11:05:26.728Z,23.48
2022-08-21T11:08:14.967Z,23.73
2022-08-21T11:10:57.663Z,23.97
2022-08-21T11:13:31.121Z,24.24
2022-08-21T11:16:00.840Z,24.32
2022-08-21T11:18:30.445Z,24.67
2022-08-21T11:21:16.460Z,24.75
2022-08-21T11:23:51.749Z,24.87
2022-08-21T11:26:26.398Z,25.10
2022-08-21T11:28:57.083Z,25.07
2022-08-21T11:31:33.813Z,24.80
2022-08-21T11:34:25.876Z,24.32
2022-08-21T11:36:59.220Z,24.07
2022-08-21T11:39:31.595Z,23.96
2022-08-21T11:42:00.371Z,23.80
2022-08-21T11:44:53.725Z,23.68
2022-08-21T11:47:28.752Z,23.64
2022-08-21T11:50:29.719Z,23.73
2022-08-21T11:53:10.019Z,23.52
2022-08-21T11:55:38.271Z,23.47
2022-08-21T11:58:05.100Z,23.54
2022-08-21T12:00:34.944Z,23.60
2022-08-21T12:03:14.179Z,23.62
2022-08-21T12:05:43.490Z,23.57
2022-08-21T12:08:10.788Z,23.58
2022-08-21T12:11:04.848Z,23.75
2022-08-21T12:13:40.617Z,23.95
2022-08-21T12:16:17.015Z,24.13
2022-08-21T12:18:44.688Z,24.23
2022-08-21T12:21:20.399Z,24.67
2022-08-21T12:24:01.466Z,24.46
2022-08-21T12:26:31.924Z,24.53
2022-08-21T12:29:06.887Z,24.54
2022-08-21T12:31:33.837Z,24.75
2022-08-21T12:34:05.116Z,24.77
2022-08-21T12:36:41.162Z,24.86
2022-08-21T12:39:15.221Z,24.76
2022-08-21T12:41:42.222Z,24.64
2022-08-21T12:44:11.516Z,25.13
2022-08-21T12:46:41.409Z,24.69
2022-08-21T12:49:40.887Z,24.77
2022-08-21T12:52:15.560Z,25.01
2022-08-21T12:54:44.442Z,25.11
2022-08-21T12:57:25.949Z,25.27
2022-08-21T12:59:58.059Z,25.24
2022-08-21T13:02:27.438Z,25.34
2022-08-21T13:04:59.117Z,25.61
2022-08-21T13:07:29.760Z,25.42
2022-08-21T13:10:06.956Z,25.47
2022-08-21T13:12:36.285Z,25.55
2022-08-21T13:15:09.142Z,25.57
2022-08-21T13:17:44.787Z,25.14
2022-08-21T13:20:24.629Z,25.18
2022-08-21T13:22:53.755Z,25.15
2022-08-21T13:25:22.929Z,25.09
2022-08-21T13:31:02.676Z,24.81
2022-08-21T13:33:34.796Z,24.62
2022-08-21T13:36:11.821Z,24.59
2022-08-21T13:38:45.578Z,24.50
2022-08-21T13:41:17.668Z,24.42
2022-08-21T13:43:50.737Z,23.97
2022-08-21T13:46:18.954Z,23.79
2022-08-21T13:48:46.034Z,23.64
2022-08-21T13:51:13.239Z,23.31
2022-08-21T13:53:45.706Z,23.24
2022-08-21T13:56:32.360Z,23.15
2022-08-21T13:59:00.550Z,23.11
2022-08-21T14:01:49.467Z,23.06
2022-08-21T14:04:19.491Z,23.17
2022-08-21T14:06:48.242Z,22.57
2022-08-21T14:09:36.503Z,22.38
2022-08-21T14:12:23.409Z,22.12
2022-08-21T14:14:51.975Z,22.18
2022-08-21T14:17:35.106Z,21.99
2022-08-21T14:20:05.904Z,21.89
2022-08-21T14:22:48.275Z,21.80
2022-08-21T14:25:28.006Z,22.01
2022-08-21T14:28:09.573Z,21.70
2022-08-21T14:30:40.458Z,21.72
2022-08-21T14:33:19.016Z,21.64
2022-08-21T14:35:47.418Z,21.81
2022-08-21T14:38:24.194Z,21.70
2022-08-21T14:40:53.298Z,21.76
2022-08-21T14:43:20.485Z,21.79
2022-08-21T14:45:47.912Z,21.82
2022-08-21T14:48:15.433Z,21.86
2022-08-21T14:50:43.167Z,21.61
2022-08-21T14:53:10.852Z,21.57
2022-08-21T14:55:58.415Z,21.26
2022-08-21T14:58:26.265Z,21.33
2022-08-21T15:00:55.024Z,21.20
2022-08-21T15:03:23.326Z,21.13
2022-08-21T15:05:51.159Z,21.00
2022-08-21T15:08:19.184Z,20.96
2022-08-21T15:11:10.090Z,20.81
2022-08-21T15:13:33.576Z,20.84
2022-08-21T15:16:00.472Z,21.11
2022-08-21T15:18:29.978Z,21.09
2022-08-21T15:20:57.984Z,20.73
2022-08-21T15:23:24.822Z,20.66
2022-08-21T15:25:53.536Z,20.84
2022-08-21T15:28:21.377Z,20.73
2022-08-21T15:30:48.476Z,20.75
2022-08-21T15:33:16.906Z,20.87
2022-08-21T15:35:44.479Z,20.86
2022-08-21T15:38:11.556Z,20.81
2022-08-21T15:40:47.757Z,20.74
2022-08-21T15:43:30.099Z,20.62
2022-08-21T15:46:01.359Z,20.72
2022-08-21T15:48:29.332Z,20.73
2022-08-21T15:50:56.256Z,20.89
2022-08-21T15:53:23.616Z,20.93
2022-08-21T15:55:52.810Z,20.87
2022-08-21T15:58:21.723Z,20.81
2022-08-21T16:00:48.654Z,20.85
2022-08-21T16:03:17.867Z,20.61
2022-08-21T16:05:45.646Z,20.70
2022-08-21T16:08:12.588Z,20.64
2022-08-21T16:10:40.182Z,20.76
2022-08-21T16:13:08.674Z,20.75
2022-08-21T16:15:35.814Z,20.83
2022-08-21T16:18:03.781Z,20.85
2022-08-21T16:20:30.871Z,20.93
2022-08-21T16:23:00.306Z,20.79
2022-08-21T16:25:28.424Z,20.84
2022-08-21T16:27:59.613Z,20.77
2022-08-21T16:30:30.585Z,20.59
2022-08-21T16:32:58.028Z,20.60
2022-08-21T16:35:25.367Z,20.56
2022-08-21T16:37:53.573Z,20.57
2022-08-21T16:40:23.592Z,20.60
2022-08-21T16:42:55.028Z,20.53
2022-08-21T16:45:22.807Z,20.43
2022-08-21T16:47:51.538Z,20.44
2022-08-21T16:50:22.932Z,20.51
2022-08-21T16:52:51.688Z,20.58
2022-08-21T16:55:20.318Z,20.56
2022-08-21T16:57:50.528Z,20.62
2022-08-21T17:00:18.248Z,20.48
2022-08-21T17:02:50.970Z,20.60
2022-08-21T17:05:18.303Z,20.52
2022-08-21T17:07:45.310Z,20.45
2022-08-21T17:10:14.059Z,20.32
2022-08-21T17:12:43.161Z,20.33
2022-08-21T17:15:17.481Z,20.50
2022-08-21T17:17:51.455Z,20.31
2022-08-21T17:20:18.936Z,20.33
2022-08-21T17:22:45.996Z,20.30
2022-08-21T17:25:13.423Z,20.36
2022-08-21T17:27:41.697Z,20.26
2022-08-21T17:30:11.357Z,20.16
2022-08-21T17:32:39.458Z,20.26
2022-08-21T17:35:06.632Z,20.32
2022-08-21T17:37:34.084Z,20.23
2022-08-21T17:40:06.094Z,20.18
2022-08-21T17:42:34.506Z,20.12
2022-08-21T17:45:01.434Z,20.11
2022-08-21T17:47:31.220Z,20.17
2022-08-21T17:49:58.992Z,20.15
2022-08-21T17:52:26.080Z,20.10
2022-08-21T17:54:54.063Z,19.98
2022-08-21T17:57:23.224Z,20.10
2022-08-21T17:59:52.364Z,19.92
2022-08-21T18:02:23.611Z,19.89
2022-08-21T18:04:51.575Z,20.00
2022-08-21T18:07:31.720Z,19.94
2022-08-21T18:10:06.028Z,19.81
2022-08-21T18:12:34.112Z,19.81
2022-08-21T18:15:01.851Z,19.78
2022-08-21T18:17:33.257Z,19.70
2022-08-21T18:20:00.578Z,19.52
2022-08-21T18:22:28.327Z,19.32
2022-08-21T18:24:55.351Z,19.10
2022-08-21T18:27:25.607Z,19.00
2022-08-21T18:29:58.059Z,18.68
2022-08-21T18:32:31.466Z,18.41
2022-08-21T18:35:12.443Z,18.17
2022-08-21T18:37:42.023Z,18.36
2022-08-21T18:40:09.761Z,18.31
2022-08-21T18:42:39.323Z,18.13
2022-08-21T18:45:10.458Z,17.98
2022-08-21T18:47:44.373Z,18.09
2022-08-21T18:50:12.489Z,18.13
2022-08-21T18:52:43.426Z,18.00
2022-08-21T18:55:20.482Z,18.04
2022-08-21T18:57:47.654Z,18.07
2022-08-21T19:00:17.325Z,17.97
2022-08-21T19:02:44.436Z,17.68
2022-08-21T19:05:13.027Z,17.57
2022-08-21T19:07:40.021Z,17.46
2022-08-21T19:10:24.190Z,17.22
2022-08-21T19:12:59.390Z,17.15
2022-08-21T19:15:27.008Z,17.24
2022-08-21T19:17:55.912Z,17.20
2022-08-21T19:20:26.196Z,17.23
2022-08-21T19:22:55.403Z,17.38
2022-08-21T19:25:33.335Z,17.21
2022-08-21T19:28:02.876Z,17.15
2022-08-21T19:30:31.215Z,17.10
2022-08-21T19:32:58.182Z,16.96
2022-08-21T19:35:27.004Z,17.01
2022-08-21T19:37:54.299Z,16.96
2022-08-21T19:40:22.243Z,17.11
2022-08-21T19:42:49.300Z,16.97
2022-08-21T19:45:16.451Z,17.00
2022-08-21T19:47:46.681Z,17.00
2022-08-21T19:53:02.898Z,16.98
2022-08-21T19:55:29.850Z,17.02
2022-08-21T19:57:56.995Z,17.04
2022-08-21T20:00:24.247Z,17.00
2022-08-21T20:02:51.315Z,17.03
2022-08-21T20:05:18.383Z,17.02
2022-08-21T20:07:46.109Z,16.99
2022-08-21T20:10:13.428Z,17.05
2022-08-21T20:12:41.301Z,17.11
2022-08-21T20:15:09.249Z,17.08
2022-08-21T20:17:38.162Z,17.03
2022-08-21T20:20:05.245Z,16.97
2022-08-21T20:22:32.633Z,16.95
2022-08-21T20:24:59.672Z,16.91
2022-08-21T20:27:27.596Z,16.96
2022-08-21T20:29:55.416Z,16.91
2022-08-21T20:32:22.683Z,16.91
2022-08-21T20:34:51.973Z,16.91
2022-08-21T20:37:22.366Z,16.92
2022-08-21T20:40:09.755Z,16.90
2022-08-21T20:42:38.739Z,16.94
2022-08-21T20:45:08.247Z,17.02
2022-08-21T20:47:35.979Z,16.93
2022-08-21T20:50:11.631Z,16.92
2022-08-21T20:52:41.445Z,16.92
2022-08-21T20:55:11.280Z,16.95
2022-08-21T20:57:57.290Z,16.98
2022-08-21T21:00:28.063Z,17.16
2022-08-21T21:03:01.181Z,17.03
2022-08-21T21:05:33.834Z,17.04
2022-08-21T21:08:00.817Z,17.03
2022-08-21T21:10:46.212Z,17.04
2022-08-21T21:13:17.894Z,17.13
2022-08-21T21:15:45.088Z,17.18
2022-08-21T21:18:14.672Z,17.20
2022-08-21T21:20:46.334Z,17.24
2022-08-21T21:23:16.378Z,17.26
2022-08-21T21:25:52.607Z,17.23
2022-08-21T21:28:24.633Z,17.30
2022-08-21T21:30:57.743Z,17.35
2022-08-21T21:33:25.350Z,17.27
2022-08-21T21:35:59.170Z,17.27
2022-08-21T21:38:37.898Z,17.30
2022-08-21T21:41:27.848Z,17.30
2022-08-21T21:44:27.542Z,17.29
2022-08-21T21:46:54.967Z,17.31
2022-08-21T21:49:49.680Z,17.28
2022-08-21T21:52:35.666Z,17.26
2022-08-21T21:55:08.279Z,17.11
2022-08-21T21:58:00.294Z,16.94
2022-08-21T22:00:33.801Z,16.82
2022-08-21T22:03:01.009Z,16.72
2022-08-21T22:05:33.998Z,16.67
2022-08-21T22:08:08.807Z,16.55
2022-08-21T22:10:43.143Z,16.57
2022-08-21T22:13:23.476Z,16.57
2022-08-21T22:15:54.477Z,16.54
2022-08-21T22:18:23.192Z,16.57
2022-08-21T22:20:55.046Z,16.62
2022-08-21T22:23:25.803Z,16.56
2022-08-21T22:25:56.025Z,16.61
2022-08-21T22:28:25.542Z,16.59
2022-08-21T22:31:13.046Z,16.58
2022-08-21T22:33:41.710Z,16.69
2022-08-21T22:36:16.496Z,16.63
2022-08-21T22:38:44.590Z,16.64
2022-08-21T22:41:17.803Z,16.56
2022-08-21T22:44:04.781Z,16.60
2022-08-21T22:46:47.663Z,16.57
2022-08-21T22:49:35.707Z,16.53
2022-08-21T22:52:20.655Z,16.47
2022-08-21T22:54:51.609Z,16.52
2022-08-21T22:57:25.399Z,16.57
2022-08-21T22:59:59.108Z,16.68
2022-08-21T23:02:26.181Z,16.65
2022-08-21T23:04:56.818Z,16.71
2022-08-21T23:07:31.757Z,16.65
2022-08-21T23:10:00.617Z,16.67
2022-08-21T23:12:34.317Z,16.76
2022-08-21T23:15:05.877Z,16.69
2022-08-21T23:17:38.964Z,16.71
2022-08-21T23:20:10.246Z,16.80
2022-08-21T23:22:40.229Z,16.72
2022-08-21T23:25:15.173Z,16.87
2022-08-21T23:27:54.232Z,16.89
2022-08-21T23:30:33.403Z,16.84
2022-08-21T23:33:11.485Z,16.93
2022-08-21T23:35:58.043Z,16.98
2022-08-21T23:38:25.160Z,16.93
2022-08-21T23:40:56.343Z,16.91
2022-08-21T23:43:25.959Z,16.89
2022-08-21T23:45:59.722Z,16.93
2022-08-21T23:48:52.464Z,17.03
2022-08-21T23:54:18.650Z,17.15
2022-08-21T23:56:48.878Z,17.18
2022-08-21T23:59:34.475Z,17.25
